Time;durP1;ratioP1;P1;durP2;ratioP2;P2;SDS_P1;SDS_P2;PMS_P1;PMS_P2;Temp;Humidity;BMP_temperature;BMP_pressure;BME280_temperature;BME280_humidity;BME280_pressure;Samples;Min_cycle;Max_cycle;Signal;HPM_P1;HPM_P2
2022/03/24 00:02:02;;;;;;;15.55;6.90;;;5.90;73.40;;;;;;6256023;28;20578;-80
2022/03/24 00:05:05;;;;;;;13.98;7.18;;;5.90;73.10;;;;;;6255279;28;20052;-78
2022/03/24 00:08:06;;;;;;;17.88;7.75;;;5.90;73.20;;;;;;6257451;28;20049;-79
2022/03/24 00:11:09;;;;;;;16.00;7.50;;;5.80;74.00;;;;;;6256473;28;20049;-79
2022/03/24 00:14:11;;;;;;;20.35;8.95;;;5.80;74.10;;;;;;6256103;28;20046;-79
2022/03/24 00:17:13;;;;;;;17.20;7.18;;;5.70;74.60;;;;;;6254051;28;20050;-78
2022/03/24 00:20:15;;;;;;;15.43;8.15;;;5.70;75.00;;;;;;6271726;28;20044;-78
2022/03/24 00:23:17;;;;;;;17.23;8.98;;;5.60;74.90;;;;;;6281512;28;20051;-79
2022/03/24 00:26:20;;;;;;;25.48;9.48;;;5.60;75.10;;;;;;6279923;28;20079;-79
2022/03/24 00:29:23;;;;;;;16.25;7.35;;;5.50;75.50;;;;;;6280006;28;20045;-79
2022/03/24 00:32:24;;;;;;;18.27;9.13;;;5.50;75.80;;;;;;6259299;28;20120;-79
2022/03/24 00:35:27;;;;;;;15.77;7.90;;;5.40;75.80;;;;;;6255909;28;20060;-78
2022/03/24 00:38:29;;;;;;;14.48;8.38;;;5.40;76.30;;;;;;6254560;28;20060;-79
2022/03/24 00:41:32;;;;;;;16.95;8.80;;;5.40;76.40;;;;;;6255733;28;20045;-79
2022/03/24 00:44:35;;;;;;;12.45;6.85;;;5.30;76.60;;;;;;6253693;28;20507;-79
2022/03/24 00:47:37;;;;;;;20.75;8.30;;;5.30;76.90;;;;;;6254482;28;20049;-79
2022/03/24 00:50:39;;;;;;;17.95;8.02;;;5.30;77.30;;;;;;6254306;28;20123;-79
2022/03/24 00:53:41;;;;;;;16.83;8.27;;;5.20;77.20;;;;;;6254645;28;20045;-79
2022/03/24 00:56:44;;;;;;;19.23;9.57;;;5.20;77.60;;;;;;6253711;28;20103;-78
2022/03/24 00:59:46;;;;;;;14.25;6.88;;;5.10;77.90;;;;;;6253752;28;20060;-79
2022/03/24 01:02:51;;;;;;;24.75;8.35;;;5.10;78.10;;;;;;6249894;28;20045;-77
2022/03/24 01:05:53;;;;;;;21.17;8.55;;;5.10;78.30;;;;;;6293946;22;20057;-79
2022/03/24 01:08:55;;;;;;;19.88;8.18;;;5.00;78.20;;;;;;6258065;28;20042;-79
2022/03/24 01:11:58;;;;;;;19.77;8.73;;;5.00;78.70;;;;;;6256623;28;20041;-78
2022/03/24 01:15:00;;;;;;;16.40;8.20;;;4.90;78.80;;;;;;6255630;28;20049;-79
2022/03/24 01:18:02;;;;;;;13.98;8.07;;;4.80;78.90;;;;;;6254866;28;20132;-79
2022/03/24 01:21:04;;;;;;;15.98;9.10;;;4.80;79.10;;;;;;6251970;28;20052;-78
2022/03/24 01:24:06;;;;;;;15.00;8.23;;;4.80;79.00;;;;;;6255552;28;20400;-78
2022/03/24 01:27:10;;;;;;;18.27;8.98;;;4.80;79.10;;;;;;6255802;28;20056;-79
2022/03/24 01:30:13;;;;;;;16.08;7.93;;;4.70;79.20;;;;;;6255208;28;20528;-79
2022/03/24 01:33:15;;;;;;;17.60;8.23;;;4.70;79.40;;;;;;6254462;28;20635;-78
2022/03/24 01:36:18;;;;;;;17.63;9.23;;;4.70;79.40;;;;;;6254633;28;20048;-78
2022/03/24 01:39:20;;;;;;;18.70;8.65;;;4.60;79.30;;;;;;6256354;28;20576;-78
2022/03/24 01:42:23;;;;;;;17.98;8.65;;;4.60;79.80;;;;;;6254937;28;20132;-78
2022/03/24 01:45:25;;;;;;;23.27;8.55;;;4.60;80.10;;;;;;6254258;28;20128;-78
2022/03/24 01:48:27;;;;;;;15.30;7.93;;;4.50;79.70;;;;;;6255192;28;20060;-79
2022/03/24 01:51:29;;;;;;;22.10;9.25;;;4.40;79.80;;;;;;6255923;28;20049;-78
2022/03/24 01:54:33;;;;;;;16.65;9.35;;;4.40;79.90;;;;;;6250327;28;20109;-79
2022/03/24 01:57:37;;;;;;;14.38;7.88;;;4.30;79.90;;;;;;6256279;28;20053;-79
2022/03/24 02:00:39;;;;;;;17.75;8.10;;;4.30;80.10;;;;;;6256116;28;20073;-79
2022/03/24 02:03:41;;;;;;;21.88;9.07;;;4.20;80.20;;;;;;6256260;28;20088;-79
2022/03/24 02:06:43;;;;;;;16.90;8.27;;;4.20;80.60;;;;;;6255492;28;20084;-79
2022/03/24 02:09:46;;;;;;;22.17;8.60;;;4.20;81.00;;;;;;6257095;28;20049;-79
2022/03/24 02:12:49;;;;;;;18.45;8.55;;;4.20;81.40;;;;;;6257952;28;20060;-79
2022/03/24 02:15:51;;;;;;;16.35;7.80;;;4.20;81.70;;;;;;6258898;28;20132;-79
2022/03/24 02:18:55;;;;;;;18.23;9.95;;;4.10;81.50;;;;;;6260284;28;20068;-80
2022/03/24 02:21:59;;;;;;;17.75;8.13;;;4.10;81.80;;;;;;6260092;28;20052;-80
2022/03/24 02:25:02;;;;;;;22.50;8.93;;;4.00;81.80;;;;;;6261468;28;20049;-80
2022/03/24 02:28:04;;;;;;;23.05;9.98;;;3.90;81.90;;;;;;6259550;28;20050;-80
2022/03/24 02:31:07;;;;;;;19.60;9.32;;;3.90;82.30;;;;;;6260577;28;20046;-80
2022/03/24 02:37:30;;;;;;;20.73;9.63;;;3.80;82.90;;;;;;6263691;28;20045;-79
2022/03/24 02:40:35;;;;;;;21.10;8.88;;;3.80;82.50;;;;;;6263290;28;20100;-79
2022/03/24 02:43:36;;;;;;;18.90;10.10;;;3.80;82.80;;;;;;6252694;28;20064;-78
2022/03/24 02:46:38;;;;;;;20.30;10.38;;;3.80;82.90;;;;;;6251505;28;20499;-79
2022/03/24 02:49:41;;;;;;;22.13;9.57;;;3.80;82.80;;;;;;6252287;28;20049;-79
2022/03/24 02:52:43;;;;;;;19.95;9.10;;;3.80;82.50;;;;;;6252830;28;20129;-79
2022/03/24 02:55:47;;;;;;;21.20;9.45;;;3.70;82.20;;;;;;6252100;28;20091;-79
2022/03/24 02:58:48;;;;;;;15.18;9.20;;;3.70;82.40;;;;;;6252619;28;20049;-79
2022/03/24 03:01:55;;;;;;;15.35;8.15;;;3.70;82.50;;;;;;6252704;28;20041;-79
2022/03/24 03:04:56;;;;;;;17.58;8.13;;;3.60;82.70;;;;;;6252181;28;20464;-79
2022/03/24 03:07:58;;;;;;;16.00;8.50;;;3.60;82.90;;;;;;6253190;28;20510;-79
2022/03/24 03:11:01;;;;;;;18.08;8.07;;;3.60;82.70;;;;;;6253650;28;20438;-79
2022/03/24 03:14:03;;;;;;;24.92;9.52;;;3.60;82.60;;;;;;6253464;28;20049;-79
2022/03/24 03:17:06;;;;;;;18.77;9.50;;;3.60;82.80;;;;;;6252898;28;20049;-79
2022/03/24 03:20:10;;;;;;;22.50;10.63;;;3.50;83.20;;;;;;6253351;28;20050;-79
2022/03/24 03:23:13;;;;;;;14.48;8.52;;;3.40;84.00;;;;;;6254554;28;20060;-79
2022/03/24 03:26:17;;;;;;;22.30;10.50;;;3.40;84.30;;;;;;6252985;28;20049;-79
2022/03/24 03:29:19;;;;;;;19.90;9.85;;;3.30;84.50;;;;;;6254473;28;20049;-79
2022/03/24 03:32:21;;;;;;;22.08;10.13;;;3.30;85.60;;;;;;6254302;28;20046;-79
2022/03/24 03:35:23;;;;;;;19.67;10.60;;;3.30;85.90;;;;;;6252426;28;20073;-79
2022/03/24 03:38:26;;;;;;;23.65;9.32;;;3.30;86.00;;;;;;6254406;28;20045;-79
2022/03/24 03:41:29;;;;;;;20.98;9.02;;;3.20;86.00;;;;;;6254663;28;20045;-79
2022/03/24 03:44:31;;;;;;;23.67;10.07;;;3.20;86.00;;;;;;6253664;28;20049;-79
2022/03/24 03:47:33;;;;;;;18.40;9.00;;;3.20;86.30;;;;;;6252645;28;20053;-79
2022/03/24 03:50:35;;;;;;;18.48;9.25;;;3.20;86.70;;;;;;6253272;28;20041;-79
2022/03/24 03:53:37;;;;;;;21.63;8.43;;;3.20;86.70;;;;;;6254175;28;20050;-79
2022/03/24 03:56:40;;;;;;;23.20;10.45;;;3.20;86.70;;;;;;6277355;28;20049;-80
2022/03/24 03:59:42;;;;;;;22.48;10.77;;;3.10;86.20;;;;;;6274163;28;20080;-80
2022/03/24 04:02:44;;;;;;;18.67;8.85;;;3.10;86.20;;;;;;6264405;28;20042;-80
2022/03/24 04:05:45;;;;;;;20.42;10.77;;;3.10;86.40;;;;;;6262175;28;20419;-79
2022/03/24 04:08:47;;;;;;;20.40;10.30;;;3.10;87.10;;;;;;6258086;28;20042;-80
2022/03/24 04:11:50;;;;;;;21.52;10.32;;;3.00;86.80;;;;;;6263045;28;20064;-79
2022/03/24 04:14:52;;;;;;;19.92;9.00;;;3.00;86.90;;;;;;6258732;28;20050;-80
2022/03/24 04:17:55;;;;;;;19.27;8.73;;;3.00;86.90;;;;;;6262835;28;20056;-80
2022/03/24 04:20:57;;;;;;;23.27;9.70;;;3.00;87.10;;;;;;6262551;28;20088;-79
2022/03/24 04:23:58;;;;;;;17.52;8.73;;;3.00;86.50;;;;;;6262439;28;20049;-80
2022/03/24 04:27:02;;;;;;;23.15;10.07;;;3.00;86.30;;;;;;6262276;28;20060;-80
2022/03/24 04:30:04;;;;;;;18.95;9.73;;;2.90;85.90;;;;;;6262069;28;20057;-80
2022/03/24 04:33:06;;;;;;;17.48;8.85;;;2.90;86.30;;;;;;6261927;28;20049;-79
2022/03/24 04:36:10;;;;;;;18.02;9.68;;;2.90;86.20;;;;;;6259705;28;20056;-80
2022/03/24 04:39:12;;;;;;;19.85;9.88;;;2.90;86.50;;;;;;6262756;28;20064;-80
2022/03/24 04:42:15;;;;;;;25.20;9.30;;;2.90;87.10;;;;;;6261115;28;20097;-79
2022/03/24 04:45:18;;;;;;;26.50;10.98;;;2.80;87.30;;;;;;6260985;28;20052;-79
2022/03/24 04:48:20;;;;;;;21.13;9.30;;;2.70;87.30;;;;;;6260988;28;20136;-79
2022/03/24 04:51:22;;;;;;;21.02;10.85;;;2.70;87.50;;;;;;6258836;28;20054;-79
2022/03/24 04:54:24;;;;;;;25.42;10.88;;;2.70;87.50;;;;;;6258696;28;20049;-80
2022/03/24 04:57:28;;;;;;;25.80;11.70;;;2.70;87.70;;;;;;6257368;28;20061;-79
2022/03/24 05:00:30;;;;;;;34.00;10.20;;;2.70;87.70;;;;;;6251390;28;20052;-79
2022/03/24 05:03:31;;;;;;;17.30;8.60;;;2.70;87.80;;;;;;6251181;28;20491;-79
2022/03/24 05:06:33;;;;;;;19.45;10.38;;;2.70;87.80;;;;;;6251910;28;20042;-80
2022/03/24 05:09:35;;;;;;;19.15;9.40;;;2.70;88.00;;;;;;6250753;28;20063;-79
2022/03/24 05:12:40;;;;;;;24.45;10.18;;;2.70;87.80;;;;;;6250744;28;20514;-81
2022/03/24 05:15:41;;;;;;;20.90;8.95;;;2.70;87.50;;;;;;6252412;28;20117;-79
2022/03/24 05:18:43;;;;;;;18.73;10.43;;;2.70;87.80;;;;;;6252232;28;20050;-79
2022/03/24 05:21:45;;;;;;;21.08;9.90;;;2.70;87.50;;;;;;6250970;28;20061;-79
2022/03/24 05:24:47;;;;;;;20.27;10.35;;;2.70;87.60;;;;;;6250217;28;20052;-80
2022/03/24 05:27:51;;;;;;;16.38;8.95;;;2.70;88.00;;;;;;6251293;28;20418;-79
2022/03/24 05:30:52;;;;;;;15.00;10.35;;;2.70;88.30;;;;;;6256266;28;20131;-79
2022/03/24 05:33:54;;;;;;;25.45;9.85;;;2.70;88.10;;;;;;6251780;28;20053;-79
2022/03/24 05:36:56;;;;;;;23.33;10.23;;;2.70;88.20;;;;;;6249924;28;20425;-80
2022/03/24 05:39:58;;;;;;;28.88;11.52;;;2.70;88.10;;;;;;6254848;28;20049;-80
2022/03/24 05:43:01;;;;;;;26.33;10.10;;;2.80;88.10;;;;;;6254244;28;20073;-79
2022/03/24 05:46:03;;;;;;;21.27;10.27;;;2.80;88.00;;;;;;6253483;28;20406;-79
2022/03/24 05:49:07;;;;;;;20.02;10.30;;;2.90;87.90;;;;;;6255747;28;20136;-80
2022/03/24 05:52:09;;;;;;;30.33;11.90;;;3.00;87.70;;;;;;6254576;28;20056;-79
2022/03/24 05:55:11;;;;;;;23.80;10.77;;;3.10;87.60;;;;;;6256156;28;20491;-79
2022/03/24 05:58:14;;;;;;;20.88;8.77;;;3.20;87.60;;;;;;6253832;28;20053;-81
2022/03/24 06:01:16;;;;;;;24.27;11.95;;;3.30;87.00;;;;;;6252369;28;20151;-80
2022/03/24 06:04:22;;;;;;;22.23;11.27;;;3.40;86.90;;;;;;6254422;28;20491;-80
2022/03/24 06:07:24;;;;;;;18.50;9.27;;;3.60;86.70;;;;;;6253517;28;20147;-79
2022/03/24 06:10:26;;;;;;;20.00;10.45;;;3.70;86.50;;;;;;6253779;28;20095;-80
2022/03/24 06:13:29;;;;;;;19.88;9.98;;;3.90;86.40;;;;;;6258173;28;20077;-79
2022/03/24 06:16:31;;;;;;;33.65;11.73;;;4.10;85.90;;;;;;6257214;28;20045;-79
2022/03/24 06:19:35;;;;;;;23.65;11.48;;;4.20;85.50;;;;;;6256208;28;20049;-79
2022/03/24 06:22:43;;;;;;;22.30;10.73;;;4.40;85.40;;;;;;6253035;28;20041;-79
2022/03/24 06:25:45;;;;;;;18.67;11.32;;;4.70;85.00;;;;;;6252345;28;20057;-80
2022/03/24 06:28:49;;;;;;;20.08;9.88;;;4.90;84.40;;;;;;6262967;28;20046;-80
2022/03/24 06:31:51;;;;;;;22.80;11.02;;;5.10;84.00;;;;;;6267348;28;20060;-80
2022/03/24 06:34:53;;;;;;;21.55;9.93;;;5.30;83.50;;;;;;6264274;28;20052;-81
2022/03/24 06:37:55;;;;;;;20.85;10.82;;;5.50;83.10;;;;;;6265343;28;20050;-80
2022/03/24 06:40:57;;;;;;;23.83;11.02;;;5.70;82.80;;;;;;6265866;28;20056;-80
2022/03/24 06:44:00;;;;;;;21.50;9.48;;;5.90;82.40;;;;;;6266822;28;20101;-80
2022/03/24 06:47:02;;;;;;;22.73;9.65;;;6.10;82.00;;;;;;6266257;28;20049;-80
2022/03/24 06:50:05;;;;;;;22.25;10.82;;;6.40;81.40;;;;;;6265966;28;20042;-80
2022/03/24 06:53:06;;;;;;;20.95;10.68;;;6.70;81.00;;;;;;6265639;28;20049;-80
2022/03/24 06:56:08;;;;;;;22.50;11.95;;;7.00;80.40;;;;;;6261978;28;20056;-80
2022/03/24 06:59:11;;;;;;;21.27;9.23;;;7.40;79.60;;;;;;6264776;28;20065;-80
2022/03/24 07:02:13;;;;;;;21.80;9.80;;;7.70;79.10;;;;;;6260927;28;20041;-80
2022/03/24 07:05:15;;;;;;;21.17;10.32;;;8.00;78.50;;;;;;6262305;28;20136;-81
2022/03/24 07:08:17;;;;;;;19.50;9.52;;;8.30;78.10;;;;;;6263100;28;20072;-80
2022/03/24 07:11:19;;;;;;;16.67;9.25;;;8.70;77.40;;;;;;6264257;28;20069;-81
2022/03/24 07:14:22;;;;;;;18.08;9.55;;;9.00;76.50;;;;;;6264286;28;20049;-80
2022/03/24 07:17:24;;;;;;;19.35;9.43;;;9.40;75.50;;;;;;6263441;28;20050;-80
2022/03/24 07:20:26;;;;;;;14.88;8.40;;;9.80;75.10;;;;;;6259837;28;20064;-80
2022/03/24 07:23:28;;;;;;;18.83;9.32;;;10.30;72.60;;;;;;6261317;28;20049;-80
2022/03/24 07:26:30;;;;;;;26.52;8.93;;;10.90;70.70;;;;;;6258496;28;20144;-80
2022/03/24 07:29:33;;;;;;;16.60;8.88;;;12.00;67.10;;;;;;6275753;28;20061;-80
2022/03/24 07:32:36;;;;;;;19.95;8.45;;;13.60;63.80;;;;;;6278779;28;20069;-78
2022/03/24 07:35:37;;;;;;;18.92;8.20;;;15.60;57.20;;;;;;6264825;28;20135;-79
2022/03/24 07:38:39;;;;;;;16.33;8.65;;;17.60;51.60;;;;;;6266786;28;20045;-79
2022/03/24 07:41:41;;;;;;;17.67;9.50;;;19.10;46.20;;;;;;6261654;28;20048;-78
2022/03/24 07:44:44;;;;;;;18.83;9.05;;;20.30;43.10;;;;;;6267923;28;20585;-78
2022/03/24 07:48:07;;;;;;;18.15;8.95;;;21.00;40.70;;;;;;6268606;28;20053;-78
2022/03/24 07:51:09;;;;;;;16.02;8.68;;;21.30;39.50;;;;;;6268208;28;20060;-80
2022/03/24 07:54:11;;;;;;;18.90;9.18;;;21.20;39.20;;;;;;6268026;28;20073;-80
2022/03/24 07:57:13;;;;;;;16.25;8.57;;;20.70;39.20;;;;;;6267160;28;20045;-80
2022/03/24 08:00:17;;;;;;;13.68;7.30;;;20.00;40.10;;;;;;6267436;28;20172;-80
2022/03/24 08:03:22;;;;;;;13.20;7.70;;;19.40;40.80;;;;;;6267306;28;20593;-80
2022/03/24 08:06:24;;;;;;;15.63;9.15;;;19.20;40.40;;;;;;6266402;28;20049;-79
2022/03/24 08:09:25;;;;;;;13.80;8.10;;;19.10;40.50;;;;;;6267868;28;20049;-80
2022/03/24 08:12:27;;;;;;;15.95;8.80;;;19.30;40.10;;;;;;6265682;28;20073;-80
2022/03/24 08:15:30;;;;;;;14.70;7.47;;;19.70;39.70;;;;;;6266878;28;20076;-80
2022/03/24 08:18:32;;;;;;;16.92;9.77;;;20.00;39.00;;;;;;6265750;28;20068;-80
2022/03/24 08:21:34;;;;;;;19.17;9.18;;;20.10;38.70;;;;;;6265055;28;20128;-79
2022/03/24 08:24:36;;;;;;;14.90;8.10;;;20.30;38.10;;;;;;6258832;28;20132;-79
2022/03/24 08:27:38;;;;;;;14.25;8.30;;;20.60;37.90;;;;;;6262922;28;20029;-79
2022/03/24 08:30:41;;;;;;;14.48;8.70;;;21.30;36.80;;;;;;6262603;28;20051;-80
2022/03/24 08:33:43;;;;;;;21.38;9.35;;;21.80;35.80;;;;;;6259662;28;20045;-79
2022/03/24 08:36:45;;;;;;;21.13;9.43;;;22.30;35.10;;;;;;6257293;28;20041;-79
2022/03/24 08:39:47;;;;;;;19.88;9.98;;;22.30;34.90;;;;;;6246254;28;20049;-79
2022/03/24 08:42:48;;;;;;;16.80;9.75;;;22.10;35.50;;;;;;6258488;28;20069;-79
2022/03/24 08:45:51;;;;;;;18.45;9.75;;;21.90;36.20;;;;;;6256383;28;20524;-80
2022/03/24 08:48:54;;;;;;;22.17;11.18;;;21.80;36.00;;;;;;6257861;28;20049;-80
2022/03/24 08:51:56;;;;;;;18.75;10.82;;;22.30;35.60;;;;;;6259562;28;20111;-79
2022/03/24 08:54:58;;;;;;;21.98;10.95;;;22.90;35.20;;;;;;6260904;28;20057;-80
2022/03/24 08:58:00;;;;;;;21.38;12.30;;;23.30;34.90;;;;;;6258414;28;20045;-80
2022/03/24 09:01:04;;;;;;;20.45;10.27;;;23.70;33.60;;;;;;6258770;28;20511;-80
2022/03/24 09:04:06;;;;;;;23.25;10.77;;;24.00;32.20;;;;;;6258929;28;20044;-80
2022/03/24 09:07:08;;;;;;;22.48;12.43;;;24.50;31.70;;;;;;6258073;28;20115;-79
2022/03/24 09:10:12;;;;;;;24.35;11.88;;;24.90;31.10;;;;;;6254345;28;20041;-78
2022/03/24 09:13:14;;;;;;;24.92;10.68;;;25.30;30.60;;;;;;6260037;28;20060;-80
2022/03/24 09:16:17;;;;;;;25.85;11.35;;;25.70;29.70;;;;;;6254180;28;20045;-79
2022/03/24 09:19:19;;;;;;;22.10;11.27;;;26.20;28.80;;;;;;6257894;28;20052;-79
2022/03/24 09:22:21;;;;;;;23.45;11.65;;;26.60;28.20;;;;;;6260859;28;20045;-79
2022/03/24 09:25:23;;;;;;;19.70;9.43;;;27.10;27.70;;;;;;6261432;28;20045;-79
2022/03/24 09:28:26;;;;;;;23.52;11.77;;;27.40;27.40;;;;;;6260018;28;20050;-79
2022/03/24 09:31:29;;;;;;;21.55;11.32;;;27.70;26.90;;;;;;6260855;28;20058;-79
2022/03/24 09:34:31;;;;;;;20.08;11.98;;;28.00;27.30;;;;;;6261709;28;20103;-80
2022/03/24 09:37:33;;;;;;;24.30;11.10;;;28.20;26.40;;;;;;6260822;28;20077;-80
2022/03/24 09:40:35;;;;;;;20.65;10.57;;;28.50;26.20;;;;;;6255768;28;20105;-80
2022/03/24 09:43:37;;;;;;;18.05;10.70;;;28.50;25.80;;;;;;6260764;28;20131;-80
2022/03/24 09:46:42;;;;;;;18.08;10.70;;;28.30;25.80;;;;;;6258737;28;20128;-79
2022/03/24 09:49:44;;;;;;;15.32;8.85;;;27.80;25.70;;;;;;6259979;28;20476;-80
2022/03/24 09:52:46;;;;;;;23.20;10.43;;;26.90;25.30;;;;;;6258473;28;20053;-80
2022/03/24 09:55:49;;;;;;;18.92;9.75;;;26.00;26.10;;;;;;6257486;28;20492;-79
2022/03/24 09:58:51;;;;;;;15.95;10.20;;;25.20;26.70;;;;;;6256578;28;20431;-80
2022/03/24 10:01:55;;;;;;;15.30;8.60;;;24.90;26.90;;;;;;6256540;28;20115;-80
2022/03/24 10:05:00;;;;;;;17.02;9.77;;;24.80;27.40;;;;;;6254843;28;20057;-80
2022/03/24 10:08:05;;;;;;;14.95;9.38;;;24.70;26.60;;;;;;6257292;28;20407;-80
2022/03/24 10:11:09;;;;;;;18.27;9.82;;;24.50;27.00;;;;;;6254235;28;20056;-80
2022/03/24 10:14:11;;;;;;;20.83;11.45;;;24.60;26.90;;;;;;6256057;28;20060;-79
2022/03/24 10:17:14;;;;;;;16.88;9.57;;;24.70;26.90;;;;;;6254300;28;20046;-82
2022/03/24 10:20:16;;;;;;;19.77;11.05;;;24.90;26.60;;;;;;6251892;28;20051;-80
2022/03/24 10:23:18;;;;;;;19.42;11.05;;;24.90;26.80;;;;;;6256913;28;20056;-80
2022/03/24 10:26:20;;;;;;;19.40;12.43;;;24.90;26.80;;;;;;6255697;28;20045;-80
2022/03/24 10:29:23;;;;;;;24.23;10.98;;;25.10;27.00;;;;;;6256808;28;20069;-80
2022/03/24 10:32:32;;;;;;;17.98;10.52;;;25.20;26.80;;;;;;6259575;28;20042;-81
2022/03/24 10:35:36;;;;;;;22.05;11.05;;;25.50;26.60;;;;;;6258916;28;20135;-80
2022/03/24 10:38:40;;;;;;;17.77;10.93;;;25.50;27.10;;;;;;6255216;28;20499;-79
2022/03/24 10:41:50;;;;;;;21.67;12.05;;;25.60;26.60;;;;;;6260157;28;20122;-79
2022/03/24 10:45:09;;;;;;;19.65;11.75;;;25.80;26.40;;;;;;6255025;28;20137;-79
2022/03/24 10:48:12;;;;;;;17.67;11.32;;;25.90;26.20;;;;;;6261970;28;20057;-79
2022/03/24 10:51:23;;;;;;;38.35;12.32;;;26.00;26.00;;;;;;6259006;28;20108;-80
2022/03/24 10:54:39;;;;;;;20.13;10.18;;;26.10;26.00;;;;;;6259850;28;20061;-81
2022/03/24 10:57:40;;;;;;;18.15;11.65;;;26.20;25.80;;;;;;6263998;28;20117;-80
2022/03/24 11:00:42;;;;;;;15.48;9.85;;;26.30;25.90;;;;;;6267891;28;20064;-80
2022/03/24 11:03:46;;;;;;;16.67;10.68;;;26.50;26.00;;;;;;6278868;28;20042;-81
2022/03/24 11:06:49;;;;;;;15.60;10.35;;;26.60;25.70;;;;;;6272466;28;20056;-81
2022/03/24 11:09:51;;;;;;;22.13;9.80;;;26.80;25.80;;;;;;6265727;28;20049;-81
2022/03/24 11:12:58;;;;;;;18.20;9.98;;;26.90;25.80;;;;;;6265578;28;20592;-81
2022/03/24 11:16:01;;;;;;;20.73;10.32;;;27.00;25.10;;;;;;6265850;28;20144;-81
2022/03/24 11:19:14;;;;;;;16.10;10.95;;;27.30;25.10;;;;;;6267201;28;20103;-81
2022/03/24 11:22:17;;;;;;;17.20;10.32;;;27.50;24.90;;;;;;6266029;28;20045;-81
2022/03/24 11:25:20;;;;;;;21.90;9.80;;;27.70;24.60;;;;;;6265278;28;20045;-81
2022/03/24 11:28:22;;;;;;;16.30;11.30;;;27.90;24.70;;;;;;6265354;28;20045;-81
2022/03/24 11:31:28;;;;;;;17.52;9.55;;;27.80;24.60;;;;;;6266558;28;20517;-81
2022/03/24 11:34:32;;;;;;;17.95;10.55;;;28.00;24.70;;;;;;6264765;28;20045;-81
2022/03/24 11:37:35;;;;;;;15.50;9.30;;;28.20;24.70;;;;;;6264874;28;20045;-81
2022/03/24 11:40:39;;;;;;;18.02;10.57;;;28.30;24.50;;;;;;6266021;28;20045;-82
2022/03/24 11:43:45;;;;;;;18.20;10.70;;;28.50;24.90;;;;;;6265633;28;20076;-81
2022/03/24 11:46:50;;;;;;;16.58;9.50;;;28.70;24.30;;;;;;6265623;28;20055;-81
2022/03/24 11:50:09;;;;;;;14.27;9.43;;;28.90;24.50;;;;;;6266545;28;20080;-81
2022/03/24 11:53:16;;;;;;;18.25;11.05;;;29.20;24.10;;;;;;6265449;28;20129;-81
2022/03/24 11:56:18;;;;;;;14.63;9.48;;;29.20;23.90;;;;;;6265077;28;20088;-81
2022/03/24 11:59:21;;;;;;;18.27;11.05;;;29.30;24.20;;;;;;6265325;28;20435;-81
2022/03/24 12:02:25;;;;;;;12.68;8.90;;;29.50;23.80;;;;;;6265212;28;20109;-81
2022/03/24 12:05:51;;;;;;;17.83;9.77;;;29.40;23.10;;;;;;6265004;28;20511;-81
2022/03/24 12:09:02;;;;;;;14.88;9.93;;;28.80;23.20;;;;;;6262318;28;20053;-81
2022/03/24 12:12:09;;;;;;;15.27;9.68;;;28.80;24.10;;;;;;6262324;28;20045;-81
2022/03/24 12:15:16;;;;;;;16.00;10.75;;;29.10;23.80;;;;;;6240536;28;20042;-80
2022/03/24 12:18:18;;;;;;;16.97;9.63;;;29.10;23.20;;;;;;6230754;28;20526;-81
2022/03/24 12:21:30;;;;;;;18.33;10.90;;;28.40;23.60;;;;;;6230235;28;20153;-81
2022/03/24 12:24:36;;;;;;;13.95;9.68;;;28.30;23.70;;;;;;6233658;28;20064;-80
2022/03/24 12:28:01;;;;;;;14.02;9.98;;;28.50;22.70;;;;;;6230729;28;20447;-81
2022/03/24 12:31:08;;;;;;;14.80;8.93;;;28.60;23.00;;;;;;6230586;28;20045;-81
2022/03/24 12:34:21;;;;;;;12.52;9.02;;;28.40;23.10;;;;;;6252784;28;20043;-83
2022/03/24 12:37:40;;;;;;;16.73;9.52;;;28.60;23.10;;;;;;6249472;28;20423;-81
2022/03/24 12:41:20;;;;;;;14.93;9.20;;;29.00;22.90;;;;;;6251782;28;20048;-82
2022/03/24 12:44:21;;;;;;;16.95;9.02;;;29.00;22.80;;;;;;6248620;28;20052;-81
2022/03/24 12:47:35;;;;;;;13.20;7.95;;;29.10;23.10;;;;;;6256770;28;20137;-81
2022/03/24 12:50:47;;;;;;;13.73;9.43;;;29.30;22.70;;;;;;6257450;28;20491;-81
2022/03/24 12:53:53;;;;;;;15.43;10.45;;;29.30;22.90;;;;;;6252276;28;20045;-81
2022/03/24 12:57:24;;;;;;;18.67;8.57;;;29.30;23.50;;;;;;6250285;28;20045;-81
2022/03/24 13:00:27;;;;;;;14.52;8.93;;;29.60;22.70;;;;;;6251006;28;20065;-81
2022/03/24 13:03:29;;;;;;;15.82;8.68;;;29.80;22.20;;;;;;6253885;28;20132;-81
2022/03/24 13:06:31;;;;;;;12.95;9.27;;;29.70;22.20;;;;;;6248463;28;20564;-83
2022/03/24 13:09:34;;;;;;;12.38;8.30;;;29.60;22.40;;;;;;6250416;28;20554;-84
2022/03/24 13:12:37;;;;;;;15.88;8.55;;;29.80;22.10;;;;;;6250071;28;20051;-84
2022/03/24 13:15:39;;;;;;;11.48;8.18;;;29.90;22.10;;;;;;6250092;28;20147;-86
2022/03/24 13:18:53;;;;;;;13.40;8.68;;;29.90;22.20;;;;;;6249537;28;20418;-85
2022/03/24 13:21:55;;;;;;;14.07;9.85;;;29.90;22.10;;;;;;6253386;28;20104;-85
2022/03/24 13:25:02;;;;;;;14.40;7.97;;;30.00;22.00;;;;;;6252234;28;20518;-85
2022/03/24 13:28:06;;;;;;;13.13;8.87;;;30.20;22.00;;;;;;6251503;28;20140;-84
2022/03/24 13:31:09;;;;;;;16.27;9.30;;;30.40;22.00;;;;;;6252477;28;20111;-83
2022/03/24 13:34:14;;;;;;;14.60;9.73;;;30.40;21.70;;;;;;6250899;28;20038;-84
2022/03/24 13:37:18;;;;;;;15.18;9.25;;;30.40;21.70;;;;;;6249094;28;20067;-84
2022/03/24 13:40:25;;;;;;;18.05;9.40;;;30.40;21.80;;;;;;6249308;28;20041;-83
2022/03/24 13:43:27;;;;;;;14.10;8.80;;;30.30;22.00;;;;;;6246082;28;20046;-83
2022/03/24 13:46:29;;;;;;;11.73;9.15;;;30.20;21.80;;;;;;6240013;28;20050;-83
2022/03/24 13:49:31;;;;;;;15.20;9.30;;;30.30;21.60;;;;;;6249220;28;20461;-84
2022/03/24 13:52:38;;;;;;;12.82;9.27;;;30.40;21.70;;;;;;6249546;28;20053;-83
2022/03/24 13:55:41;;;;;;;17.75;9.43;;;30.50;21.70;;;;;;6248131;28;20049;-83
2022/03/24 13:58:45;;;;;;;15.35;9.00;;;30.40;21.20;;;;;;6248373;28;20056;-83
2022/03/24 14:01:56;;;;;;;17.35;9.10;;;30.30;21.60;;;;;;6247251;28;20041;-83
2022/03/24 14:05:09;;;;;;;15.07;9.05;;;30.30;21.10;;;;;;6232185;28;20046;-83
2022/03/24 14:08:11;;;;;;;14.88;9.32;;;30.40;21.10;;;;;;6224069;28;20499;-83
2022/03/24 14:11:16;;;;;;;13.32;8.07;;;30.40;21.00;;;;;;6224029;28;20052;-83
2022/03/24 14:14:18;;;;;;;16.13;9.25;;;30.50;21.40;;;;;;6224783;28;20630;-83
2022/03/24 14:17:23;;;;;;;14.15;9.35;;;30.50;21.10;;;;;;6222844;28;20534;-84
2022/03/24 14:20:25;;;;;;;13.07;7.90;;;30.40;21.00;;;;;;6225287;28;20125;-84
2022/03/24 14:23:30;;;;;;;13.65;7.45;;;30.40;21.00;;;;;;6224129;28;20152;-83
2022/03/24 14:26:33;;;;;;;11.80;8.02;;;30.20;20.60;;;;;;6224566;28;20054;-84
2022/03/24 14:29:36;;;;;;;14.82;9.32;;;30.10;20.80;;;;;;6225186;28;20052;-83
2022/03/24 14:32:41;;;;;;;10.85;7.60;;;29.30;20.70;;;;;;6245727;28;20037;-83
2022/03/24 14:35:57;;;;;;;13.73;9.13;;;28.80;20.90;;;;;;6271618;28;20057;-83
2022/03/24 14:39:13;;;;;;;13.50;8.48;;;28.60;21.00;;;;;;6260688;28;20054;-84
2022/03/24 14:42:16;;;;;;;13.18;9.00;;;28.70;21.10;;;;;;6260717;28;20072;-84
2022/03/24 14:45:18;;;;;;;11.93;8.98;;;28.80;21.40;;;;;;6242508;28;20045;-83
2022/03/24 14:48:20;;;;;;;14.77;8.95;;;28.70;21.40;;;;;;6259315;28;20037;-83
2022/03/24 14:51:22;;;;;;;15.43;8.77;;;28.70;21.50;;;;;;6257348;28;20131;-82
2022/03/24 14:54:24;;;;;;;15.40;8.98;;;28.70;21.30;;;;;;6258857;28;20149;-83
2022/03/24 14:57:27;;;;;;;14.05;8.23;;;28.50;21.20;;;;;;6260560;28;20069;-85
2022/03/24 15:00:29;;;;;;;12.23;8.75;;;28.50;21.40;;;;;;6257779;28;20128;-82
2022/03/24 15:03:31;;;;;;;15.18;8.90;;;28.60;21.40;;;;;;6256422;28;20076;-83
2022/03/24 15:06:33;;;;;;;11.93;7.72;;;28.50;21.20;;;;;;6256288;28;20048;-85
2022/03/24 15:09:35;;;;;;;14.57;10.18;;;28.00;21.30;;;;;;6267149;28;20135;-84
2022/03/24 15:12:38;;;;;;;13.23;8.80;;;27.70;21.70;;;;;;6258811;28;20128;-84
2022/03/24 15:19:11;;;;;;;17.73;8.70;;;27.60;21.70;;;;;;6181385;28;20050;-84
2022/03/24 15:22:13;;;;;;;14.93;8.90;;;27.30;22.00;;;;;;6257788;28;20610;-83
2022/03/24 15:25:15;;;;;;;10.95;7.95;;;26.90;22.50;;;;;;6254839;28;20503;-84
2022/03/24 15:28:18;;;;;;;15.55;10.13;;;26.60;22.20;;;;;;6255014;28;20057;-85
2022/03/24 15:31:21;;;;;;;16.50;9.25;;;26.30;22.50;;;;;;6256303;28;20061;-83
2022/03/24 15:34:25;;;;;;;17.45;9.15;;;25.90;22.40;;;;;;6256950;28;20041;-83
2022/03/24 15:37:27;;;;;;;15.43;10.38;;;25.50;22.60;;;;;;6256743;28;20422;-82
2022/03/24 15:40:30;;;;;;;14.40;8.48;;;25.00;22.40;;;;;;6255356;28;20045;-83
2022/03/24 15:43:35;;;;;;;14.80;9.35;;;24.60;22.90;;;;;;6255184;28;20109;-83
2022/03/24 15:46:36;;;;;;;17.08;9.20;;;24.20;23.10;;;;;;6253440;28;20042;-82
2022/03/24 15:49:38;;;;;;;13.65;8.93;;;23.90;23.50;;;;;;6253656;28;20076;-83
2022/03/24 15:52:41;;;;;;;15.63;8.65;;;23.60;23.40;;;;;;6253534;28;20057;-82